createdAt,value
2022-09-22T00:01:21.941Z,6.30
2022-09-22T00:03:53.108Z,6.30
2022-09-22T00:06:23.193Z,6.30
2022-09-22T00:08:54.343Z,6.20
2022-09-22T00:11:24.948Z,6.00
2022-09-22T00:13:56.259Z,6.00
2022-09-22T00:16:28.428Z,6.20
2022-09-22T00:18:56.526Z,6.30
2022-09-22T00:21:27.673Z,6.20
2022-09-22T00:23:56.264Z,6.20
2022-09-22T00:26:25.142Z,6.20
2022-09-22T00:28:53.806Z,6.20
2022-09-22T00:31:24.837Z,6.20
2022-09-22T00:33:55.431Z,6.10
2022-09-22T00:36:25.626Z,6.00
2022-09-22T00:38:55.480Z,6.00
2022-09-22T00:41:25.607Z,5.90
2022-09-22T00:44:37.114Z,5.90
2022-09-22T00:47:24.767Z,5.80
2022-09-22T00:49:57.811Z,5.80
2022-09-22T00:52:28.611Z,5.90
2022-09-22T00:55:00.329Z,5.90
2022-09-22T00:57:32.612Z,6.00
2022-09-22T01:00:02.727Z,6.00
2022-09-22T01:02:30.623Z,6.00
2022-09-22T01:05:00.040Z,5.90
2022-09-22T01:07:31.081Z,6.00
2022-09-22T01:09:59.801Z,6.00
2022-09-22T01:12:30.476Z,6.00
2022-09-22T01:15:20.231Z,6.10
2022-09-22T01:18:00.417Z,6.10
2022-09-22T01:21:05.939Z,6.00
2022-09-22T01:24:11.883Z,6.00
2022-09-22T01:27:06.274Z,5.90
2022-09-22T01:30:03.945Z,5.90
2022-09-22T01:32:39.931Z,5.80
2022-09-22T01:35:17.448Z,5.70
2022-09-22T01:37:54.347Z,5.70
2022-09-22T01:40:28.469Z,5.60
2022-09-22T01:43:00.108Z,5.70
2022-09-22T01:45:31.437Z,5.60
2022-09-22T01:48:06.566Z,5.50
2022-09-22T01:50:38.339Z,5.50
2022-09-22T01:53:11.172Z,5.60
2022-09-22T01:55:42.547Z,5.60
2022-09-22T01:58:14.546Z,5.60
2022-09-22T02:00:49.377Z,5.60
2022-09-22T02:03:24.744Z,5.50
2022-09-22T02:05:56.827Z,5.50
2022-09-22T02:08:31.139Z,5.50
2022-09-22T02:11:04.637Z,5.50
2022-09-22T02:13:32.536Z,5.60
2022-09-22T02:16:03.269Z,5.50
2022-09-22T02:18:36.096Z,5.50
2022-09-22T02:21:05.648Z,5.50
2022-09-22T02:23:33.766Z,5.60
2022-09-22T02:26:03.840Z,5.60
2022-09-22T02:28:37.736Z,5.50
2022-09-22T02:31:23.254Z,5.50
2022-09-22T02:33:53.345Z,5.40
2022-09-22T02:36:39.975Z,5.40
2022-09-22T02:39:10.752Z,5.30
2022-09-22T02:41:58.220Z,5.30
2022-09-22T02:44:30.835Z,5.30
2022-09-22T02:47:02.776Z,5.20
2022-09-22T02:49:32.604Z,5.20
2022-09-22T02:52:00.843Z,5.20
2022-09-22T02:54:28.763Z,5.20
2022-09-22T02:56:57.228Z,5.30
2022-09-22T02:59:25.109Z,5.30
2022-09-22T03:01:53.068Z,5.30
2022-09-22T03:04:21.078Z,5.30
2022-09-22T03:06:50.352Z,5.30
2022-09-22T03:09:18.259Z,5.30
2022-09-22T03:11:46.484Z,5.30
2022-09-22T03:14:14.440Z,5.20
2022-09-22T03:16:42.336Z,5.10
2022-09-22T03:19:10.214Z,5.10
2022-09-22T03:21:38.138Z,5.00
2022-09-22T03:24:07.584Z,4.90
2022-09-22T03:26:35.789Z,4.80
2022-09-22T03:29:03.720Z,4.80
2022-09-22T03:31:31.745Z,4.70
2022-09-22T03:34:00.012Z,4.80
2022-09-22T03:36:27.891Z,4.70
2022-09-22T03:38:55.940Z,4.70
2022-09-22T03:41:25.201Z,4.80
2022-09-22T03:43:53.507Z,4.80
2022-09-22T03:46:21.547Z,4.80
2022-09-22T03:48:49.623Z,4.80
2022-09-22T03:51:17.732Z,4.70
2022-09-22T03:53:46.115Z,4.70
2022-09-22T03:56:16.245Z,4.80
2022-09-22T03:58:45.622Z,4.70
2022-09-22T04:01:13.644Z,4.70
2022-09-22T04:03:41.857Z,4.70
2022-09-22T04:06:10.087Z,4.70
2022-09-22T04:08:38.654Z,4.70
2022-09-22T04:11:07.762Z,4.70
2022-09-22T04:13:36.291Z,4.70
2022-09-22T04:16:06.178Z,4.80
2022-09-22T04:18:34.239Z,4.80
2022-09-22T04:21:02.165Z,5.00
2022-09-22T04:23:30.096Z,4.90
2022-09-22T04:25:58.180Z,4.90
2022-09-22T04:28:26.076Z,4.90
2022-09-22T04:30:54.043Z,4.80
2022-09-22T04:33:24.100Z,4.80
2022-09-22T04:35:52.604Z,4.80
2022-09-22T04:38:20.691Z,4.80
2022-09-22T04:40:49.553Z,4.70
2022-09-22T04:43:17.519Z,4.70
2022-09-22T04:45:47.090Z,4.70
2022-09-22T04:48:15.458Z,4.70
2022-09-22T04:50:47.984Z,4.60
2022-09-22T04:53:16.835Z,4.50
2022-09-22T04:55:45.005Z,4.50
2022-09-22T04:58:13.849Z,4.50
2022-09-22T05:00:41.932Z,4.50
2022-09-22T05:03:10.668Z,4.50
2022-09-22T05:05:38.579Z,4.40
2022-09-22T05:08:07.874Z,4.50
2022-09-22T05:10:37.197Z,4.50
2022-09-22T05:13:05.686Z,4.50
2022-09-22T05:15:34.593Z,4.50
2022-09-22T05:18:02.716Z,4.40
2022-09-22T05:20:30.589Z,4.30
2022-09-22T05:22:58.526Z,4.30
2022-09-22T05:25:27.915Z,4.30
2022-09-22T05:27:56.766Z,4.30
2022-09-22T05:30:26.708Z,4.40
2022-09-22T05:32:54.880Z,4.40
2022-09-22T05:35:25.075Z,4.40
2022-09-22T05:37:54.382Z,4.50
2022-09-22T05:40:24.172Z,4.60
2022-09-22T05:42:54.871Z,4.60
2022-09-22T05:45:23.645Z,4.60
2022-09-22T05:47:51.853Z,4.60
2022-09-22T05:50:21.323Z,4.60
2022-09-22T05:52:49.310Z,4.70
2022-09-22T05:55:17.795Z,4.70
2022-09-22T05:57:46.048Z,4.80
2022-09-22T06:00:15.838Z,4.80
2022-09-22T06:02:45.215Z,5.00
2022-09-22T06:05:16.125Z,5.10
2022-09-22T06:07:44.729Z,5.20
2022-09-22T06:10:12.727Z,5.30
2022-09-22T06:12:40.925Z,5.50
2022-09-22T06:15:09.331Z,5.60
2022-09-22T06:17:38.582Z,5.70
2022-09-22T06:20:08.488Z,5.80
2022-09-22T06:22:37.141Z,5.90
2022-09-22T06:25:08.965Z,6.00
2022-09-22T06:27:36.842Z,6.00
2022-09-22T06:30:05.682Z,6.10
2022-09-22T06:32:33.599Z,6.20
2022-09-22T06:35:02.869Z,6.30
2022-09-22T06:37:32.490Z,6.40
2022-09-22T06:40:00.626Z,6.50
2022-09-22T06:42:28.541Z,6.70
2022-09-22T06:44:56.533Z,6.80
2022-09-22T06:47:24.595Z,7.10
2022-09-22T06:49:53.670Z,7.30
2022-09-22T06:52:22.921Z,7.40
2022-09-22T06:54:53.707Z,7.50
2022-09-22T06:57:21.950Z,7.70
2022-09-22T06:59:49.834Z,7.90
2022-09-22T07:02:20.146Z,8.10
2022-09-22T07:04:48.208Z,8.20
2022-09-22T07:07:16.478Z,8.40
2022-09-22T07:09:46.154Z,8.60
2022-09-22T07:12:14.279Z,8.70
2022-09-22T07:14:43.862Z,8.80
2022-09-22T07:17:11.764Z,9.00
2022-09-22T07:19:39.662Z,9.10
2022-09-22T07:22:08.056Z,9.20
2022-09-22T07:24:36.125Z,9.30
2022-09-22T07:27:07.008Z,9.50
2022-09-22T07:29:35.093Z,9.60
2022-09-22T07:32:04.043Z,9.70
2022-09-22T07:34:32.636Z,9.80
2022-09-22T07:37:00.926Z,9.90
2022-09-22T07:39:28.838Z,10.00
2022-09-22T07:41:56.701Z,10.10
2022-09-22T07:44:44.694Z,10.20
2022-09-22T07:47:13.213Z,10.20
2022-09-22T07:49:41.124Z,10.30
2022-09-22T07:52:09.856Z,10.50
2022-09-22T07:54:39.689Z,10.60
2022-09-22T07:57:09.504Z,10.70
2022-09-22T07:59:40.400Z,10.80
2022-09-22T08:02:10.235Z,10.90
2022-09-22T08:04:38.504Z,11.00
2022-09-22T08:07:06.556Z,11.10
2022-09-22T08:09:36.946Z,11.10
2022-09-22T08:12:05.645Z,11.20
2022-09-22T08:14:33.756Z,11.20
2022-09-22T08:17:02.996Z,11.20
2022-09-22T08:19:33.788Z,11.30
2022-09-22T08:22:01.748Z,11.30
2022-09-22T08:24:29.716Z,11.50
2022-09-22T08:26:57.652Z,11.60
2022-09-22T08:29:26.680Z,11.70
2022-09-22T08:31:54.912Z,11.80
2022-09-22T08:34:24.266Z,11.90
2022-09-22T08:36:52.243Z,12.10
2022-09-22T08:39:20.413Z,12.30
2022-09-22T08:42:08.094Z,12.50
2022-09-22T08:44:41.009Z,12.70
2022-09-22T08:47:17.696Z,12.80
2022-09-22T08:50:07.739Z,13.00
2022-09-22T08:52:39.943Z,13.10
2022-09-22T08:55:17.205Z,13.40
2022-09-22T08:57:59.362Z,13.60
2022-09-22T09:00:33.767Z,13.80
2022-09-22T09:03:15.059Z,13.90
2022-09-22T09:05:51.809Z,14.20
2022-09-22T09:08:48.175Z,14.30
2022-09-22T09:11:31.968Z,14.50
2022-09-22T09:14:13.675Z,14.70
2022-09-22T09:16:48.089Z,15.00
2022-09-22T09:19:18.983Z,15.10
2022-09-22T09:21:52.602Z,15.20
2022-09-22T09:27:22.034Z,15.50
2022-09-22T09:30:01.996Z,15.70
2022-09-22T09:32:39.384Z,16.00
2022-09-22T09:35:13.041Z,16.20
2022-09-22T09:37:43.986Z,16.50
2022-09-22T09:40:17.177Z,16.50
2022-09-22T09:42:47.148Z,16.60
2022-09-22T09:45:17.690Z,16.60
2022-09-22T09:48:12.337Z,16.80
2022-09-22T09:50:40.289Z,17.00
2022-09-22T09:53:31.145Z,17.30
2022-09-22T09:55:59.736Z,17.60
2022-09-22T09:58:45.542Z,17.70
2022-09-22T10:01:15.274Z,17.80
2022-09-22T10:03:46.938Z,18.20
2022-09-22T10:06:16.152Z,18.40
2022-09-22T10:08:47.173Z,18.30
2022-09-22T10:11:15.942Z,18.30
2022-09-22T10:13:45.068Z,18.20
2022-09-22T10:16:33.484Z,18.10
2022-09-22T10:19:23.915Z,18.10
2022-09-22T10:21:52.684Z,18.30
2022-09-22T10:24:31.408Z,18.60
2022-09-22T10:27:02.486Z,19.00
2022-09-22T10:29:33.563Z,19.40
2022-09-22T10:32:12.306Z,19.90
2022-09-22T10:34:42.441Z,20.30
2022-09-22T10:37:12.993Z,20.10
2022-09-22T10:39:46.687Z,19.90
2022-09-22T10:42:28.615Z,20.30
2022-09-22T10:45:02.431Z,20.80
2022-09-22T10:47:49.088Z,21.00
2022-09-22T10:50:35.668Z,20.80
2022-09-22T10:53:17.574Z,21.00
2022-09-22T10:55:56.785Z,21.30
2022-09-22T10:58:30.858Z,21.70
2022-09-22T11:01:13.345Z,21.70
2022-09-22T11:04:10.622Z,21.50
2022-09-22T11:07:10.343Z,21.60
2022-09-22T11:10:01.412Z,21.30
2022-09-22T11:12:47.323Z,20.80
2022-09-22T11:15:27.098Z,20.90
2022-09-22T11:18:39.913Z,21.40
2022-09-22T11:21:20.377Z,21.60
2022-09-22T11:24:02.297Z,21.60
2022-09-22T11:26:46.631Z,21.80
2022-09-22T11:29:46.057Z,21.80
2022-09-22T11:32:28.641Z,21.70
2022-09-22T11:35:21.494Z,21.60
2022-09-22T11:38:02.756Z,21.80
2022-09-22T11:40:48.968Z,22.10
2022-09-22T11:43:34.569Z,22.40
2022-09-22T11:46:11.616Z,22.70
2022-09-22T11:48:51.271Z,22.90
2022-09-22T11:51:45.930Z,22.40
2022-09-22T11:54:28.074Z,22.40
2022-09-22T11:57:02.245Z,23.00
2022-09-22T11:59:38.447Z,23.40
2022-09-22T12:02:18.604Z,23.50
2022-09-22T12:04:53.040Z,23.80
2022-09-22T12:07:28.735Z,23.80
2022-09-22T12:10:01.091Z,24.20
2022-09-22T12:12:31.621Z,24.80
2022-09-22T12:15:06.835Z,24.90
2022-09-22T12:17:41.566Z,24.20
2022-09-22T12:20:25.419Z,24.20
2022-09-22T12:23:12.168Z,24.10
2022-09-22T12:25:49.442Z,24.10
2022-09-22T12:28:20.740Z,24.30
2022-09-22T12:31:03.862Z,24.00
2022-09-22T12:33:34.743Z,24.00
2022-09-22T12:36:08.064Z,24.00
2022-09-22T12:38:54.453Z,24.20
2022-09-22T12:42:01.542Z,24.20
2022-09-22T12:44:40.376Z,23.80
2022-09-22T12:50:40.808Z,23.50
2022-09-22T12:53:25.420Z,23.60
2022-09-22T12:55:54.988Z,24.40
2022-09-22T12:58:41.481Z,24.90
2022-09-22T13:01:30.084Z,25.20
2022-09-22T13:04:16.916Z,24.90
2022-09-22T13:07:00.021Z,24.80
2022-09-22T13:09:30.490Z,24.90
2022-09-22T13:12:28.069Z,24.60
2022-09-22T13:15:16.860Z,25.10
2022-09-22T13:17:46.572Z,25.00
2022-09-22T13:20:16.751Z,24.90
2022-09-22T13:22:46.406Z,25.10
2022-09-22T13:25:23.353Z,25.20
2022-09-22T13:28:11.610Z,25.40
2022-09-22T13:30:40.672Z,25.50
2022-09-22T13:33:22.565Z,25.40
2022-09-22T13:35:56.527Z,25.50
2022-09-22T13:38:26.345Z,25.60
2022-09-22T13:40:54.439Z,25.60
2022-09-22T13:43:28.531Z,25.90
2022-09-22T13:45:58.288Z,25.80
2022-09-22T13:48:29.660Z,26.00
2022-09-22T13:51:01.120Z,26.00
2022-09-22T13:53:32.498Z,25.90
2022-09-22T13:56:01.286Z,25.70
2022-09-22T13:58:35.883Z,25.80
2022-09-22T14:01:19.834Z,26.00
2022-09-22T14:03:48.492Z,25.90
2022-09-22T14:06:18.643Z,25.80
2022-09-22T14:08:52.594Z,25.70
2022-09-22T14:11:22.542Z,25.90
2022-09-22T14:14:01.097Z,25.90
2022-09-22T14:16:33.616Z,26.40
2022-09-22T14:19:07.365Z,26.70
2022-09-22T14:21:42.735Z,26.50
2022-09-22T14:24:14.888Z,26.50
2022-09-22T14:26:48.044Z,26.20
2022-09-22T14:29:23.059Z,26.10
2022-09-22T14:31:54.530Z,26.20
2022-09-22T14:34:26.689Z,26.40
2022-09-22T14:36:56.145Z,26.70
2022-09-22T14:39:31.891Z,26.70
2022-09-22T14:42:08.888Z,26.40
2022-09-22T14:44:42.712Z,26.60
2022-09-22T14:47:26.410Z,26.50
2022-09-22T14:50:10.594Z,26.60
2022-09-22T14:52:41.623Z,26.90
2022-09-22T14:55:16.877Z,27.00
2022-09-22T14:57:48.479Z,27.00
2022-09-22T15:00:35.381Z,26.60
2022-09-22T15:03:08.401Z,26.00
2022-09-22T15:05:37.444Z,25.10
2022-09-22T15:08:05.584Z,24.00
2022-09-22T15:10:35.171Z,23.50
2022-09-22T15:13:20.450Z,22.70
2022-09-22T15:15:50.020Z,22.00
2022-09-22T15:18:19.326Z,21.30
2022-09-22T15:20:50.570Z,21.00
2022-09-22T15:23:27.171Z,20.70
2022-09-22T15:25:57.426Z,20.50
2022-09-22T15:28:27.002Z,20.30
2022-09-22T15:30:55.743Z,20.10
2022-09-22T15:33:24.082Z,19.90
2022-09-22T15:35:56.404Z,19.80
2022-09-22T15:38:27.513Z,19.60
2022-09-22T15:40:57.372Z,19.40
2022-09-22T15:43:30.723Z,19.30
2022-09-22T15:46:01.857Z,19.20
2022-09-22T15:48:33.838Z,19.10
2022-09-22T15:51:04.645Z,19.00
2022-09-22T15:53:33.372Z,18.90
2022-09-22T15:56:05.136Z,18.80
2022-09-22T15:58:36.642Z,18.70
2022-09-22T16:01:05.589Z,18.60
2022-09-22T16:03:40.353Z,18.50
2022-09-22T16:06:12.575Z,18.40
2022-09-22T16:08:43.797Z,18.30
2022-09-22T16:11:14.893Z,18.20
2022-09-22T16:13:42.870Z,18.20
2022-09-22T16:16:12.479Z,18.20
2022-09-22T16:18:41.676Z,18.20
2022-09-22T16:21:19.522Z,18.10
2022-09-22T16:23:47.387Z,18.00
2022-09-22T16:26:16.874Z,18.00
2022-09-22T16:28:44.685Z,17.90
2022-09-22T16:31:15.687Z,17.90
2022-09-22T16:33:51.074Z,17.90
2022-09-22T16:36:19.331Z,17.80
2022-09-22T16:38:47.244Z,17.80
2022-09-22T16:41:21.636Z,17.70
2022-09-22T16:43:49.905Z,17.70
2022-09-22T16:46:28.020Z,17.60
2022-09-22T16:48:56.565Z,17.50
2022-09-22T16:51:24.689Z,17.50
2022-09-22T16:53:52.570Z,17.30
2022-09-22T16:56:23.381Z,17.30
2022-09-22T16:58:52.017Z,17.30
2022-09-22T17:01:20.469Z,17.20
2022-09-22T17:03:50.589Z,17.10
2022-09-22T17:06:22.933Z,17.10
2022-09-22T17:08:53.561Z,17.10
2022-09-22T17:11:29.276Z,17.00
2022-09-22T17:14:01.262Z,16.90
2022-09-22T17:16:30.894Z,16.90
2022-09-22T17:19:10.065Z,16.80
2022-09-22T17:21:40.029Z,16.70
2022-09-22T17:24:09.687Z,16.70
2022-09-22T17:26:41.147Z,16.60
2022-09-22T17:29:10.810Z,16.50
2022-09-22T17:31:40.890Z,16.50
2022-09-22T17:34:09.748Z,16.40
2022-09-22T17:36:37.715Z,16.30
2022-09-22T17:39:06.621Z,16.20
2022-09-22T17:41:35.434Z,16.00
2022-09-22T17:44:06.287Z,15.80
2022-09-22T17:46:35.764Z,15.70
2022-09-22T17:49:21.612Z,15.40
2022-09-22T17:52:07.748Z,15.20
2022-09-22T17:54:54.618Z,14.90
2022-09-22T17:57:24.737Z,14.70
2022-09-22T17:59:55.110Z,14.50
2022-09-22T18:02:24.412Z,14.40
2022-09-22T18:04:53.022Z,14.20
2022-09-22T18:07:23.655Z,14.10
2022-09-22T18:09:53.774Z,13.90
2022-09-22T18:12:24.599Z,13.70
2022-09-22T18:14:55.544Z,13.60
2022-09-22T18:17:25.934Z,13.50
2022-09-22T18:19:55.448Z,13.30
2022-09-22T18:22:24.680Z,13.10
2022-09-22T18:24:55.381Z,13.00
2022-09-22T18:27:25.465Z,12.90
2022-09-22T18:29:58.687Z,12.80
2022-09-22T18:32:27.467Z,12.70
2022-09-22T18:34:56.303Z,12.60
2022-09-22T18:37:26.323Z,12.50
2022-09-22T18:39:54.627Z,12.40
2022-09-22T18:42:25.131Z,12.40
2022-09-22T18:44:54.573Z,12.20
2022-09-22T18:47:23.306Z,12.10
2022-09-22T18:49:51.789Z,12.00
2022-09-22T18:52:23.799Z,11.90
2022-09-22T18:54:54.625Z,11.90
2022-09-22T18:57:25.390Z,11.80
2022-09-22T18:59:57.628Z,11.80
2022-09-22T19:02:25.889Z,11.70
2022-09-22T19:04:53.865Z,11.70
2022-09-22T19:07:43.620Z,11.60
2022-09-22T19:10:13.475Z,11.60
2022-09-22T19:12:42.300Z,11.60
2022-09-22T19:15:15.081Z,11.60
2022-09-22T19:17:44.759Z,11.60
2022-09-22T19:20:15.803Z,11.50
2022-09-22T19:22:44.307Z,11.40
2022-09-22T19:25:12.990Z,11.30
2022-09-22T19:27:41.069Z,11.30
2022-09-22T19:30:11.589Z,11.20
2022-09-22T19:32:40.822Z,11.20
2022-09-22T19:35:09.482Z,11.10
2022-09-22T19:37:38.391Z,11.10
2022-09-22T19:40:07.894Z,11.00
2022-09-22T19:42:40.061Z,11.00
2022-09-22T19:45:09.029Z,10.90
2022-09-22T19:47:39.392Z,10.80
2022-09-22T19:50:08.804Z,10.80
2022-09-22T19:52:37.638Z,10.70
2022-09-22T19:55:06.460Z,10.80
2022-09-22T19:57:40.127Z,10.70
2022-09-22T20:00:09.392Z,10.70
2022-09-22T20:02:41.120Z,10.60
2022-09-22T20:05:18.907Z,10.60
2022-09-22T20:07:46.958Z,10.50
2022-09-22T20:10:15.107Z,10.50
2022-09-22T20:12:43.033Z,10.50
2022-09-22T20:15:15.525Z,10.50
2022-09-22T20:17:45.944Z,10.40
2022-09-22T20:20:14.768Z,10.50
2022-09-22T20:22:42.875Z,10.50
2022-09-22T20:25:22.724Z,10.50
2022-09-22T20:27:50.685Z,10.50
2022-09-22T20:30:19.362Z,10.50
2022-09-22T20:32:48.740Z,10.40
2022-09-22T20:35:19.030Z,10.40
2022-09-22T20:37:46.929Z,10.40
2022-09-22T20:40:18.529Z,10.40
2022-09-22T20:42:46.603Z,10.40
2022-09-22T20:45:14.625Z,10.30
2022-09-22T20:47:42.758Z,10.30
2022-09-22T20:50:13.284Z,10.30
2022-09-22T20:52:41.463Z,10.40
2022-09-22T20:55:10.532Z,10.30
2022-09-22T20:57:39.001Z,10.30
2022-09-22T21:00:08.104Z,10.30
2022-09-22T21:02:36.284Z,10.30
2022-09-22T21:05:04.467Z,10.10
2022-09-22T21:07:34.144Z,10.00
2022-09-22T21:10:19.772Z,10.00
2022-09-22T21:12:47.643Z,10.00
2022-09-22T21:15:15.783Z,10.10
2022-09-22T21:17:44.238Z,10.10
2022-09-22T21:20:12.236Z,10.00
2022-09-22T21:22:42.765Z,9.90
2022-09-22T21:25:10.991Z,9.90
2022-09-22T21:27:38.966Z,9.80
2022-09-22T21:30:08.595Z,9.80
2022-09-22T21:32:37.530Z,9.70
2022-09-22T21:35:06.603Z,9.60
2022-09-22T21:37:34.509Z,9.50
2022-09-22T21:40:04.359Z,9.40
2022-09-22T21:42:32.353Z,9.30
2022-09-22T21:45:00.260Z,9.20
2022-09-22T21:47:28.268Z,9.10
2022-09-22T21:49:56.536Z,9.10
2022-09-22T21:52:24.494Z,9.00
2022-09-22T21:54:52.477Z,9.00
2022-09-22T21:57:23.303Z,9.00
2022-09-22T21:59:54.828Z,8.90
2022-09-22T22:02:24.748Z,8.90
2022-09-22T22:04:52.811Z,8.90
2022-09-22T22:07:20.738Z,8.90
2022-09-22T22:09:48.651Z,8.90
2022-09-22T22:12:16.567Z,8.80
2022-09-22T22:14:47.067Z,8.80
2022-09-22T22:17:15.052Z,8.80
2022-09-22T22:19:42.940Z,8.80
2022-09-22T22:22:11.125Z,8.80
2022-09-22T22:24:42.174Z,8.80
2022-09-22T22:27:11.790Z,8.80
2022-09-22T22:29:39.848Z,8.80
2022-09-22T22:32:10.969Z,8.80
2022-09-22T22:34:39.156Z,8.80
2022-09-22T22:37:09.529Z,8.80
2022-09-22T22:39:37.841Z,8.80
2022-09-22T22:42:06.917Z,8.80
2022-09-22T22:44:35.117Z,8.80
2022-09-22T22:47:03.137Z,8.80
2022-09-22T22:49:32.442Z,8.70
2022-09-22T22:52:00.389Z,8.70
2022-09-22T22:54:28.275Z,8.60
2022-09-22T22:56:56.153Z,8.50
2022-09-22T22:59:24.027Z,8.50
2022-09-22T23:01:52.073Z,8.50
2022-09-22T23:04:21.141Z,8.50
2022-09-22T23:06:51.641Z,8.40
2022-09-22T23:09:19.891Z,8.40
2022-09-22T23:11:47.865Z,8.40
2022-09-22T23:14:16.961Z,8.40
2022-09-22T23:16:46.657Z,8.40
2022-09-22T23:19:16.820Z,8.50
2022-09-22T23:21:45.751Z,8.50
2022-09-22T23:24:18.867Z,8.50
2022-09-22T23:26:47.645Z,8.50
2022-09-22T23:29:15.646Z,8.50
2022-09-22T23:31:43.568Z,8.50
2022-09-22T23:34:11.460Z,8.50
2022-09-22T23:36:39.822Z,8.50
2022-09-22T23:39:08.012Z,8.40
2022-09-22T23:41:37.856Z,8.40
2022-09-22T23:44:06.512Z,8.40
2022-09-22T23:46:34.877Z,8.40
2022-09-22T23:49:02.865Z,8.30
2022-09-22T23:51:30.870Z,8.20
2022-09-22T23:53:59.187Z,8.20
2022-09-22T23:56:27.184Z,8.20
2022-09-22T23:58:56.436Z,8.20
